Time;durP1;ratioP1;P1;durP2;ratioP2;P2;SDS_P1;SDS_P2;PMS_P1;PMS_P2;Temp;Humidity;BMP_temperature;BMP_pressure;BME280_temperature;BME280_humidity;BME280_pressure;Samples;Min_cycle;Max_cycle;Signal;HPM_P1;HPM_P2
2022/05/01 00:02:16;;;;;;;10.50;9.48;;;;;;;11.05;60.87;99444.63;2622669;54;20125;-63
2022/05/01 00:04:46;;;;;;;12.95;9.90;;;;;;;11.09;60.93;99454.69;2622865;54;20031;-63
2022/05/01 00:07:18;;;;;;;13.57;8.82;;;;;;;11.11;61.40;99444.75;2623324;54;20034;-65
2022/05/01 00:09:48;;;;;;;11.10;8.35;;;;;;;11.07;61.14;99453.25;2623354;54;20089;-63
2022/05/01 00:12:18;;;;;;;13.77;9.13;;;;;;;11.04;61.25;99448.28;2623444;54;20041;-63
2022/05/01 00:14:47;;;;;;;10.10;8.70;;;;;;;11.03;61.66;99447.47;2624217;54;20031;-64
2022/05/01 00:17:17;;;;;;;10.88;9.30;;;;;;;11.04;61.78;99448.28;2623097;54;20045;-64
2022/05/01 00:19:47;;;;;;;12.88;9.27;;;;;;;11.06;61.98;99448.94;2623915;54;20043;-63
2022/05/01 00:22:24;;;;;;;12.00;9.35;;;;;;;11.09;61.42;99445.94;2624285;54;20085;-63
2022/05/01 00:24:53;;;;;;;10.82;9.10;;;;;;;11.04;61.63;99440.34;2624018;54;20027;-64
2022/05/01 00:27:23;;;;;;;15.80;9.05;;;;;;;10.95;61.81;99438.78;2623836;54;20061;-64
2022/05/01 00:29:52;;;;;;;13.63;9.13;;;;;;;10.86;62.36;99438.88;2623393;54;20046;-63
2022/05/01 00:32:22;;;;;;;12.10;9.95;;;;;;;10.84;61.91;99440.84;2624131;54;20061;-63
2022/05/01 00:37:37;;;;;;;12.00;9.13;;;;;;;10.81;62.27;99432.44;2623686;54;20053;-64
2022/05/01 00:40:07;;;;;;;15.63;9.50;;;;;;;10.79;62.45;99431.81;2623254;54;20027;-64
2022/05/01 00:42:37;;;;;;;11.40;9.50;;;;;;;10.68;62.63;99429.59;2623838;54;20045;-63
2022/05/01 00:45:07;;;;;;;14.43;9.30;;;;;;;10.62;62.46;99429.31;2622937;54;20030;-63
2022/05/01 00:47:40;;;;;;;11.57;9.35;;;;;;;10.70;62.53;99432.91;2622662;54;20546;-64
2022/05/01 00:50:10;;;;;;;12.15;9.05;;;;;;;10.71;62.44;99439.81;2623491;39;20466;-63
2022/05/01 00:52:43;;;;;;;11.25;9.10;;;;;;;10.74;62.48;99428.91;2623259;54;20035;-63
2022/05/01 00:55:12;;;;;;;12.25;8.95;;;;;;;10.72;62.85;99431.69;2623026;54;20049;-63
2022/05/01 00:57:42;;;;;;;11.10;8.82;;;;;;;10.74;62.91;99429.72;2622665;54;20138;-63
2022/05/01 01:00:12;;;;;;;9.73;8.73;;;;;;;10.71;62.86;99430.06;2621270;54;20038;-63
2022/05/01 01:02:42;;;;;;;11.77;8.80;;;;;;;10.66;62.65;99429.78;2621296;54;20030;-63
2022/05/01 01:05:13;;;;;;;11.98;9.50;;;;;;;10.45;63.17;99427.81;2621355;54;20026;-63
2022/05/01 01:07:45;;;;;;;11.20;9.35;;;;;;;10.14;63.61;99436.53;2620745;54;20030;-63
2022/05/01 01:10:15;;;;;;;14.35;9.98;;;;;;;10.05;64.19;99439.41;2621243;54;20038;-63
2022/05/01 01:12:56;;;;;;;11.55;9.30;;;;;;;10.09;64.34;99436.25;2621364;54;20026;-63
2022/05/01 01:15:28;;;;;;;14.50;9.73;;;;;;;10.13;64.73;99434.09;2619095;54;20042;-63
2022/05/01 01:17:59;;;;;;;12.68;9.30;;;;;;;10.13;64.71;99436.72;2621398;54;20042;-64
2022/05/01 01:20:32;;;;;;;10.65;8.25;;;;;;;10.13;64.97;99424.34;2622742;54;20038;-63
2022/05/01 01:23:04;;;;;;;12.75;8.82;;;;;;;10.18;64.68;99427.28;2623227;39;20422;-64
2022/05/01 01:25:35;;;;;;;11.75;9.30;;;;;;;10.15;65.19;99427.63;2622941;54;20033;-64
2022/05/01 01:28:08;;;;;;;10.80;8.73;;;;;;;10.17;64.81;99423.00;2622098;54;20038;-64
2022/05/01 01:33:20;;;;;;;11.20;8.75;;;;;;;10.19;65.05;99425.44;2620662;54;20038;-65
2022/05/01 01:35:52;;;;;;;11.25;8.35;;;;;;;10.15;65.35;99417.03;2620629;54;20030;-66
2022/05/01 01:38:24;;;;;;;12.75;9.32;;;;;;;10.10;65.16;99426.50;2620671;54;20031;-63
2022/05/01 01:40:56;;;;;;;10.68;9.50;;;;;;;10.10;65.67;99418.56;2620935;54;20037;-63
2022/05/01 01:43:27;;;;;;;10.20;8.75;;;;;;;10.13;65.46;99418.25;2621299;54;20038;-63
2022/05/01 01:45:57;;;;;;;11.95;9.25;;;;;;;10.16;65.53;99405.50;2621231;39;20439;-64
2022/05/01 01:48:27;;;;;;;9.95;8.90;;;;;;;10.17;65.40;99416.88;2620716;54;20038;-64
2022/05/01 01:50:58;;;;;;;14.38;10.73;;;;;;;10.19;65.59;99414.88;2620139;54;20165;-64
2022/05/01 01:53:32;;;;;;;14.35;10.13;;;;;;;10.23;65.41;99410.88;2619884;54;20030;-64
2022/05/01 01:56:02;;;;;;;;;;;;;;;10.16;65.42;99409.94;2620636;54;20546;-64
2022/05/01 01:58:32;;;;;;;12.15;8.55;;;;;;;10.08;65.12;99413.47;2620743;54;20422;-64
2022/05/01 02:01:02;;;;;;;10.82;9.75;;;;;;;10.04;65.30;99412.19;2620807;54;20026;-65
2022/05/01 02:03:32;;;;;;;12.18;9.20;;;;;;;9.99;65.65;99413.69;2620797;54;20026;-64
2022/05/01 02:06:03;;;;;;;11.02;9.68;;;;;;;9.89;66.30;99419.19;2621300;54;20027;-65
2022/05/01 02:08:36;;;;;;;14.98;9.90;;;;;;;9.87;66.37;99413.25;2621127;54;20030;-65
2022/05/01 02:11:06;;;;;;;;;;;;;;;9.76;66.21;99403.91;2621629;54;20085;-65
2022/05/01 02:13:38;;;;;;;13.40;9.93;;;;;;;9.73;66.86;99406.06;2618688;54;20515;-64
2022/05/01 02:16:08;;;;;;;12.10;9.60;;;;;;;9.72;66.83;99407.88;2618608;54;20042;-65
2022/05/01 02:18:38;;;;;;;12.90;9.52;;;;;;;9.68;66.97;99406.59;2620316;54;20030;-63
2022/05/01 02:23:52;;;;;;;12.50;9.57;;;;;;;9.66;67.15;99406.75;2621634;54;20045;-64
2022/05/01 02:26:22;;;;;;;10.55;9.38;;;;;;;9.67;67.00;99404.91;2621241;54;20538;-64
2022/05/01 02:28:52;;;;;;;12.60;10.15;;;;;;;9.68;66.88;99401.31;2620936;54;20034;-65
2022/05/01 02:31:22;;;;;;;13.73;9.35;;;;;;;9.71;66.96;99400.13;2621692;54;20553;-62
2022/05/01 02:33:51;;;;;;;11.63;9.40;;;;;;;9.77;66.74;99399.44;2621814;54;20042;-63
2022/05/01 02:36:21;;;;;;;14.18;10.27;;;;;;;9.80;66.95;99391.19;2622778;54;20030;-62
2022/05/01 02:38:53;;;;;;;11.90;9.13;;;;;;;9.80;66.71;99393.84;2622304;54;20031;-64
2022/05/01 02:41:23;;;;;;;10.50;9.10;;;;;;;9.84;66.69;99395.94;2622847;39;20450;-63
2022/05/01 02:43:53;;;;;;;12.25;9.45;;;;;;;9.90;66.27;99391.78;2623168;54;20035;-63
2022/05/01 02:46:24;;;;;;;11.63;10.00;;;;;;;9.96;66.01;99392.88;2622442;54;20036;-64
2022/05/01 02:48:53;;;;;;;16.40;10.07;;;;;;;9.96;65.72;99391.09;2621387;54;20534;-64
2022/05/01 02:51:23;;;;;;;12.70;9.93;;;;;;;9.96;65.88;99390.25;2620282;54;20030;-64
2022/05/01 02:53:55;;;;;;;13.25;10.23;;;;;;;9.93;65.73;99381.69;2621518;54;20035;-65
2022/05/01 02:56:25;;;;;;;10.95;9.63;;;;;;;9.95;65.90;99378.06;2622151;54;20034;-64
2022/05/01 02:58:55;;;;;;;12.48;9.95;;;;;;;9.97;65.34;99371.59;2621459;54;20033;-64
2022/05/01 03:01:25;;;;;;;10.85;9.73;;;;;;;9.98;65.31;99375.88;2621988;54;20034;-66
2022/05/01 03:03:54;;;;;;;13.05;10.30;;;;;;;10.01;65.05;99378.19;2621046;54;20038;-65
2022/05/01 03:06:24;;;;;;;11.55;9.85;;;;;;;9.93;65.41;99384.34;2621286;54;20039;-63
2022/05/01 03:08:56;;;;;;;12.93;9.85;;;;;;;9.89;65.65;99384.88;2619777;54;20023;-62
2022/05/01 03:11:26;;;;;;;11.82;9.90;;;;;;;9.76;65.51;99384.59;2621398;54;20031;-63
2022/05/01 03:13:55;;;;;;;12.82;9.98;;;;;;;9.68;66.11;99378.38;2620890;54;20035;-63
2022/05/01 03:16:25;;;;;;;13.90;9.95;;;;;;;9.64;65.89;99384.16;2620438;51;20035;-63
2022/05/01 03:24:21;;;;;;;13.23;9.95;;;;;;;9.54;66.37;99380.91;2621969;54;20030;-63
2022/05/01 03:26:51;;;;;;;12.90;9.73;;;;;;;9.54;66.54;99378.25;2621385;54;20045;-65
2022/05/01 03:29:21;;;;;;;14.63;10.02;;;;;;;9.52;66.62;99381.09;2622199;54;20027;-64
2022/05/01 03:31:50;;;;;;;12.50;10.13;;;;;;;9.50;66.87;99383.06;2622642;54;20034;-64
2022/05/01 03:34:20;;;;;;;12.73;10.07;;;;;;;9.48;66.50;99384.25;2622919;54;20463;-63
2022/05/01 03:36:50;;;;;;;10.77;9.68;;;;;;;9.49;67.09;99383.25;2621576;54;20034;-64
2022/05/01 03:39:22;;;;;;;11.98;10.63;;;;;;;9.52;66.80;99385.53;2621722;54;20034;-63
2022/05/01 03:41:52;;;;;;;13.50;9.90;;;;;;;9.47;66.74;99378.16;2621319;54;20049;-63
2022/05/01 03:44:22;;;;;;;12.85;9.93;;;;;;;9.51;66.89;99381.22;2620912;54;20038;-63
2022/05/01 03:46:51;;;;;;;14.30;10.80;;;;;;;9.51;67.17;99381.22;2619837;54;20050;-61
2022/05/01 03:49:21;;;;;;;13.52;10.27;;;;;;;9.51;66.71;99382.09;2620502;54;20074;-64
2022/05/01 03:51:50;;;;;;;12.25;10.10;;;;;;;9.51;66.50;99375.97;2620707;54;20039;-64
2022/05/01 03:54:24;;;;;;;16.73;10.50;;;;;;;9.52;66.46;99374.97;2620052;54;20039;-65
2022/05/01 03:56:53;;;;;;;14.82;10.68;;;;;;;9.46;66.62;99380.94;2620133;54;20030;-65
2022/05/01 03:59:24;;;;;;;12.32;9.93;;;;;;;9.46;67.14;99380.94;2619754;54;20035;-65
2022/05/01 04:01:53;;;;;;;12.32;10.60;;;;;;;9.49;66.68;99377.97;2619440;54;20031;-64
2022/05/01 04:04:23;;;;;;;11.02;9.80;;;;;;;9.47;66.94;99385.22;2619495;54;20057;-64
2022/05/01 04:06:53;;;;;;;18.10;11.35;;;;;;;9.47;67.16;99377.28;2619348;54;20038;-64
2022/05/01 04:09:27;;;;;;;12.02;10.63;;;;;;;9.42;66.82;99383.91;2619076;54;20075;-64
2022/05/01 04:11:56;;;;;;;12.95;10.75;;;;;;;9.45;67.13;99376.66;2619134;54;20041;-65
2022/05/01 04:14:26;;;;;;;25.25;18.67;;;;;;;9.45;67.20;99384.56;2624078;54;20064;-64
2022/05/01 04:16:56;;;;;;;17.13;12.20;;;;;;;9.50;66.97;99387.50;2625763;54;20032;-64
2022/05/01 04:19:26;;;;;;;15.43;10.38;;;;;;;9.50;67.19;99383.06;2623738;54;20030;-64
2022/05/01 04:21:56;;;;;;;11.45;10.05;;;;;;;9.46;66.88;99383.56;2622869;47;20037;-64
2022/05/01 04:24:28;;;;;;;12.55;9.90;;;;;;;9.39;67.16;99388.72;2621329;54;20040;-64
2022/05/01 04:26:58;;;;;;;11.07;9.88;;;;;;;9.34;67.56;99393.66;2619332;54;20558;-63
2022/05/01 04:29:40;;;;;;;12.07;10.45;;;;;;;9.33;67.39;99390.22;2619670;54;20035;-64
2022/05/01 04:32:14;;;;;;;17.60;11.13;;;;;;;9.34;67.32;99391.84;2619553;54;20130;-62
2022/05/01 04:34:43;;;;;;;15.15;10.55;;;;;;;9.32;67.45;99393.84;2619582;54;20338;-63
2022/05/01 04:37:13;;;;;;;16.17;11.32;;;;;;;9.39;67.22;99386.91;2619529;54;20038;-63
2022/05/01 04:39:45;;;;;;;14.85;10.75;;;;;;;9.44;67.06;99389.03;2619010;54;20142;-63
2022/05/01 04:42:17;;;;;;;14.50;11.07;;;;;;;9.49;67.15;99388.50;2620403;47;20031;-64
2022/05/01 04:44:47;;;;;;;15.15;11.32;;;;;;;9.43;66.88;99388.22;2620753;54;20042;-64
2022/05/01 04:47:16;;;;;;;13.40;11.35;;;;;;;9.47;67.24;99387.84;2621557;54;20022;-64
2022/05/01 04:49:46;;;;;;;13.68;10.98;;;;;;;9.53;67.19;99384.53;2622646;54;20039;-64
2022/05/01 04:52:16;;;;;;;12.93;10.65;;;;;;;9.56;67.14;99385.03;2621736;54;20030;-63
2022/05/01 04:54:48;;;;;;;14.35;11.23;;;;;;;9.58;66.67;99388.28;2622901;54;20047;-65
2022/05/01 04:57:18;;;;;;;15.48;10.70;;;;;;;9.54;67.15;99394.09;2623343;39;20442;-64
2022/05/01 04:59:48;;;;;;;15.13;10.68;;;;;;;9.58;66.85;99390.94;2622748;51;20053;-64
2022/05/01 05:02:18;;;;;;;13.52;10.95;;;;;;;9.60;66.87;99398.72;2622858;47;20049;-64
2022/05/01 05:04:48;;;;;;;14.70;10.80;;;;;;;9.65;66.83;99399.81;2623070;54;20093;-64
2022/05/01 05:07:19;;;;;;;14.05;10.60;;;;;;;9.66;66.49;99395.38;2622057;54;20034;-65
2022/05/01 05:09:54;;;;;;;13.52;10.75;;;;;;;9.73;66.62;99398.97;2622085;46;20039;-64
2022/05/01 05:12:24;;;;;;;14.23;11.32;;;;;;;9.78;66.19;99401.09;2622338;54;20037;-65
2022/05/01 05:14:57;;;;;;;15.55;12.07;;;;;;;9.78;66.46;99409.00;2622452;54;20057;-65
2022/05/01 05:17:28;;;;;;;12.73;10.73;;;;;;;9.77;66.58;99408.19;2622228;54;20031;-65
2022/05/01 05:19:57;;;;;;;12.90;10.50;;;;;;;9.79;66.07;99413.28;2622674;54;20038;-66
2022/05/01 05:22:27;;;;;;;14.95;10.82;;;;;;;9.82;66.25;99419.06;2622943;39;20507;-65
2022/05/01 05:25:00;;;;;;;12.68;10.75;;;;;;;9.81;65.49;99417.41;2621907;54;20038;-65
2022/05/01 05:27:29;;;;;;;15.73;11.15;;;;;;;9.83;65.25;99410.13;2622858;39;20434;-67
2022/05/01 05:30:00;;;;;;;12.77;11.02;;;;;;;9.88;65.24;99409.63;2621618;54;20057;-64
2022/05/01 05:32:35;;;;;;;14.73;11.07;;;;;;;9.85;65.37;99412.63;2622098;39;20414;-63
2022/05/01 05:35:06;;;;;;;17.13;11.80;;;;;;;9.85;65.50;99416.06;2623183;54;20038;-63
2022/05/01 05:37:36;;;;;;;14.43;10.75;;;;;;;9.89;65.42;99417.38;2622976;39;20434;-64
2022/05/01 05:40:10;;;;;;;15.50;10.82;;;;;;;9.87;65.40;99415.88;2622371;46;20041;-65
2022/05/01 05:42:39;;;;;;;11.73;10.52;;;;;;;9.87;65.55;99410.59;2620933;54;20038;-63
2022/05/01 05:45:12;;;;;;;15.52;11.75;;;;;;;9.91;65.36;99409.25;2621062;39;20446;-63
2022/05/01 05:47:41;;;;;;;13.77;10.73;;;;;;;9.91;65.17;99409.25;2622716;54;20035;-63
2022/05/01 05:50:12;;;;;;;13.80;11.02;;;;;;;9.97;65.17;99410.41;2622603;54;20026;-64
2022/05/01 05:52:42;;;;;;;15.18;11.32;;;;;;;10.01;64.79;99412.53;2622662;54;20038;-63
2022/05/01 05:55:14;;;;;;;15.43;11.38;;;;;;;10.07;64.98;99411.81;2622915;54;20038;-64
2022/05/01 05:57:44;;;;;;;15.10;11.88;;;;;;;10.15;64.35;99410.94;2622720;54;20041;-64
2022/05/01 06:00:15;;;;;;;15.77;11.82;;;;;;;10.17;64.43;99414.25;2623178;54;20546;-64
2022/05/01 06:02:44;;;;;;;13.27;11.57;;;;;;;10.03;64.57;99414.97;2622814;54;20031;-64
2022/05/01 06:05:14;;;;;;;13.65;11.05;;;;;;;10.02;64.54;99419.44;2622505;54;20038;-64
2022/05/01 06:07:44;;;;;;;13.50;11.57;;;;;;;10.03;64.76;99413.16;2620708;54;20034;-64
2022/05/01 06:10:16;;;;;;;16.63;12.40;;;;;;;9.92;64.22;99422.31;2620949;47;20076;-66
2022/05/01 06:12:46;;;;;;;13.65;12.13;;;;;;;9.90;64.72;99423.47;2622947;54;20788;-64
2022/05/01 06:15:21;;;;;;;12.90;11.55;;;;;;;10.00;64.93;99425.88;2622447;54;20030;-63
2022/05/01 06:17:52;;;;;;;13.65;11.63;;;;;;;10.12;64.60;99421.84;2622571;39;20450;-64
2022/05/01 06:20:21;;;;;;;15.90;11.05;;;;;;;10.29;64.31;99410.22;2622126;47;20033;-62
2022/05/01 06:22:52;;;;;;;13.38;11.10;;;;;;;10.38;63.88;99421.56;2622414;47;20045;-63
2022/05/01 06:25:24;;;;;;;15.18;11.48;;;;;;;10.39;63.40;99425.84;2623459;39;20403;-62
2022/05/01 06:27:54;;;;;;;18.50;13.05;;;;;;;10.40;63.68;99424.84;2623268;39;20429;-65
2022/05/01 06:30:24;;;;;;;15.77;12.68;;;;;;;10.45;63.41;99426.94;2622652;54;20042;-63
2022/05/01 06:32:53;;;;;;;16.35;12.63;;;;;;;10.49;63.80;99431.75;2620073;54;20057;-64
2022/05/01 06:35:24;;;;;;;13.85;12.18;;;;;;;10.52;63.04;99430.53;2621786;54;20558;-62
2022/05/01 06:37:54;;;;;;;17.38;13.02;;;;;;;10.62;63.21;99439.06;2622802;54;20030;-62
2022/05/01 06:40:27;;;;;;;14.20;12.70;;;;;;;10.61;63.20;99429.47;2622643;54;20038;-62
2022/05/01 06:42:57;;;;;;;18.92;13.00;;;;;;;10.65;62.78;99436.91;2621908;54;20561;-63
2022/05/01 06:45:27;;;;;;;13.73;11.65;;;;;;;10.75;62.42;99428.72;2621265;54;20038;-65
2022/05/01 06:47:56;;;;;;;16.52;12.55;;;;;;;10.86;62.36;99432.75;2620608;54;20030;-62
2022/05/01 06:50:26;;;;;;;13.88;11.93;;;;;;;10.88;61.83;99434.22;2617322;54;20030;-63
2022/05/01 06:52:56;;;;;;;14.68;11.88;;;;;;;10.93;61.91;99438.13;2617672;54;20534;-63
2022/05/01 06:55:28;;;;;;;15.82;13.30;;;;;;;10.91;61.22;99433.84;2618933;54;20035;-65
2022/05/01 06:57:58;;;;;;;17.15;12.05;;;;;;;10.96;61.48;99440.44;2622737;54;20547;-63
2022/05/01 07:00:28;;;;;;;13.23;11.68;;;;;;;11.04;61.52;99440.34;2622016;54;20034;-64
2022/05/01 07:02:57;;;;;;;18.50;13.77;;;;;;;11.14;61.14;99433.81;2621982;54;20042;-62
2022/05/01 07:05:27;;;;;;;22.60;17.33;;;;;;;11.25;61.29;99431.72;2621322;54;20589;-66
2022/05/01 07:07:57;;;;;;;16.13;12.95;;;;;;;11.26;60.05;99434.16;2621739;54;20041;-64
2022/05/01 07:10:29;;;;;;;15.63;12.00;;;;;;;11.27;60.96;99435.00;2622331;54;20585;-62
2022/05/01 07:12:59;;;;;;;15.88;11.73;;;;;;;11.47;60.76;99429.97;2621945;54;20027;-66
2022/05/01 07:15:29;;;;;;;15.57;12.05;;;;;;;11.66;60.53;99432.88;2621995;54;20034;-64
2022/05/01 07:17:59;;;;;;;14.55;11.38;;;;;;;11.80;59.69;99428.59;2621413;54;20026;-64
2022/05/01 07:20:30;;;;;;;13.23;11.25;;;;;;;11.95;59.54;99422.47;2621623;54;20071;-63
2022/05/01 07:23:00;;;;;;;16.60;11.18;;;;;;;12.15;59.20;99429.63;2621423;39;20552;-65
2022/05/01 07:25:32;;;;;;;14.55;11.00;;;;;;;12.34;58.67;99416.78;2621049;47;20033;-64
2022/05/01 07:28:02;;;;;;;13.63;12.27;;;;;;;12.35;57.56;99421.88;2620948;54;20601;-63
2022/05/01 07:30:32;;;;;;;14.82;10.38;;;;;;;12.20;58.09;99415.81;2621619;54;20035;-63
2022/05/01 07:33:01;;;;;;;17.73;11.45;;;;;;;12.17;58.28;99418.03;2622196;54;20030;-63
2022/05/01 07:35:31;;;;;;;14.27;12.00;;;;;;;12.20;57.49;99415.00;2622938;54;20042;-64
2022/05/01 07:38:03;;;;;;;11.90;10.68;;;;;;;12.04;58.01;99410.75;2622281;54;20046;-64
2022/05/01 07:40:36;;;;;;;11.32;10.07;;;;;;;12.20;57.83;99409.69;2621797;47;20111;-64
2022/05/01 07:43:06;;;;;;;15.75;10.38;;;;;;;11.98;57.11;99406.22;2622387;54;20039;-63
2022/05/01 07:45:36;;;;;;;12.63;10.20;;;;;;;12.07;57.15;99410.38;2622605;54;20034;-66
2022/05/01 07:48:15;;;;;;;13.98;10.80;;;;;;;12.23;57.14;99404.03;2621845;54;20038;-66
2022/05/01 07:50:45;;;;;;;14.90;10.13;;;;;;;12.41;56.45;99407.06;2622350;54;20030;-64
2022/05/01 07:53:16;;;;;;;11.45;10.23;;;;;;;12.53;56.43;99404.72;2622871;54;20034;-65
2022/05/01 07:55:48;;;;;;;13.13;10.88;;;;;;;12.70;56.10;99400.81;2623258;54;20149;-64
2022/05/01 07:58:20;;;;;;;11.88;10.05;;;;;;;12.74;55.78;99399.41;2622910;54;20134;-63
2022/05/01 08:00:51;;;;;;;13.07;10.35;;;;;;;12.79;56.49;99404.13;2621247;46;20022;-64
2022/05/01 08:06:03;;;;;;;11.35;9.75;;;;;;;13.21;55.21;99389.09;2621481;54;20065;-67
2022/05/01 08:08:33;;;;;;;15.98;9.48;;;;;;;13.44;55.30;99392.34;2620565;54;20051;-65
2022/05/01 08:11:06;;;;;;;11.93;10.50;;;;;;;13.59;54.48;99384.22;2622704;39;20426;-64
2022/05/01 08:13:36;;;;;;;12.68;10.05;;;;;;;13.61;53.45;99390.16;2621613;54;20041;-64
2022/05/01 08:16:06;;;;;;;16.08;10.88;;;;;;;13.51;53.40;99387.03;2620823;54;20037;-65
2022/05/01 08:21:19;;;;;;;10.85;9.68;;;;;;;13.62;53.14;99389.16;2622832;54;20065;-65
2022/05/01 08:23:50;;;;;;;12.55;10.50;;;;;;;13.69;52.63;99394.50;2620661;54;20170;-66
2022/05/01 08:26:23;;;;;;;13.30;9.50;;;;;;;13.68;52.65;99390.22;2620929;47;20030;-64
2022/05/01 08:28:54;;;;;;;16.58;10.48;;;;;;;13.73;52.16;99390.44;2621308;54;20030;-65
2022/05/01 08:31:24;;;;;;;12.15;10.95;;;;;;;13.72;52.10;99394.09;2621876;54;20039;-65
2022/05/01 08:33:54;;;;;;;12.25;10.10;;;;;;;13.67;52.38;99388.53;2621698;54;20038;-63
2022/05/01 08:36:24;;;;;;;17.23;12.57;;;;;;;13.70;52.77;99390.81;2621520;54;20045;-66
2022/05/01 08:38:53;;;;;;;16.05;10.95;;;;;;;13.82;53.02;99391.88;2622009;39;20420;-65
2022/05/01 08:41:28;;;;;;;12.18;10.50;;;;;;;14.00;52.50;99389.50;2621147;54;20570;-65
2022/05/01 08:44:00;;;;;;;15.63;10.40;;;;;;;14.09;51.76;99385.63;2620297;47;20030;-64
2022/05/01 08:46:47;;;;;;;10.73;9.65;;;;;;;13.96;51.99;99382.94;2620910;54;20037;-63
2022/05/01 08:49:19;;;;;;;13.60;9.93;;;;;;;14.05;52.37;99387.06;2621162;54;20038;-64
2022/05/01 08:51:49;;;;;;;12.60;10.82;;;;;;;14.01;52.16;99385.00;2621074;39;20474;-65
2022/05/01 08:54:18;;;;;;;14.30;9.70;;;;;;;14.03;51.74;99386.41;2621334;54;20035;-65
2022/05/01 08:56:51;;;;;;;9.93;9.00;;;;;;;14.04;52.29;99385.44;2620430;54;20026;-65
2022/05/01 08:59:21;;;;;;;11.68;9.43;;;;;;;14.30;52.47;99383.84;2620810;54;20027;-71
2022/05/01 09:01:52;;;;;;;13.10;10.35;;;;;;;14.38;51.70;99379.13;2620061;46;20026;-65
2022/05/01 09:04:26;;;;;;;12.75;9.90;;;;;;;14.53;51.19;99375.47;2622541;54;20032;-65
2022/05/01 09:06:55;;;;;;;11.93;9.15;;;;;;;14.55;51.39;99376.94;2621181;54;20038;-65
2022/05/01 09:09:26;;;;;;;17.13;9.77;;;;;;;14.69;51.04;99383.06;2622192;54;20038;-64
2022/05/01 09:14:41;;;;;;;12.98;9.93;;;;;;;14.97;50.97;99385.50;2621600;54;20033;-67
2022/05/01 09:17:16;;;;;;;14.65;9.75;;;;;;;14.96;50.35;99383.88;2619715;47;20037;-65
2022/05/01 09:19:48;;;;;;;9.38;8.48;;;;;;;14.80;50.24;99384.28;2621134;54;20122;-65
2022/05/01 09:22:23;;;;;;;11.57;9.73;;;;;;;14.76;50.82;99385.72;2621281;47;20041;-66
2022/05/01 09:24:57;;;;;;;10.65;8.85;;;;;;;14.92;50.96;99392.47;2620554;46;20019;-65
2022/05/01 09:27:34;;;;;;;13.18;10.00;;;;;;;14.97;50.72;99388.16;2621248;54;20035;-65
2022/05/01 09:30:15;;;;;;;11.57;9.07;;;;;;;15.12;50.42;99385.28;2623450;54;20026;-65
2022/05/01 09:32:46;;;;;;;9.85;7.90;;;;;;;15.19;50.41;99380.78;2626304;54;20030;-65
2022/05/01 09:35:18;;;;;;;11.23;8.90;;;;;;;15.29;50.26;99383.81;2627011;39;20483;-66
2022/05/01 09:37:48;;;;;;;10.18;8.75;;;;;;;15.43;49.83;99391.75;2623647;47;20042;-66
2022/05/01 09:40:32;;;;;;;10.30;8.55;;;;;;;14.88;49.56;99393.91;2624729;39;20414;-64
2022/05/01 09:43:04;;;;;;;13.25;10.00;;;;;;;15.00;50.62;99393.06;2623415;54;20030;-64
2022/05/01 09:45:35;;;;;;;10.63;8.82;;;;;;;15.26;50.25;99394.06;2622834;39;20731;-65
2022/05/01 09:48:22;;;;;;;11.07;8.57;;;;;;;15.47;49.14;99385.81;2622114;54;20038;-64
2022/05/01 09:50:52;;;;;;;11.52;8.75;;;;;;;15.54;49.06;99394.59;2621560;46;20049;-65
2022/05/01 09:53:21;;;;;;;12.30;9.45;;;;;;;15.42;49.33;99388.28;2618993;54;20026;-63
2022/05/01 09:56:02;;;;;;;15.27;11.48;;;;;;;15.66;49.37;99388.63;2618482;47;20029;-64
2022/05/01 09:58:40;;;;;;;10.85;9.10;;;;;;;15.82;49.01;99391.63;2618614;54;20041;-63
2022/05/01 10:01:12;;;;;;;15.30;9.13;;;;;;;16.03;48.24;99384.34;2618614;54;20027;-64
2022/05/01 10:03:43;;;;;;;9.10;8.18;;;;;;;15.85;48.38;99385.06;2618900;39;20438;-64
2022/05/01 10:06:18;;;;;;;10.95;8.48;;;;;;;15.84;48.12;99388.78;2618346;54;20038;-63
2022/05/01 10:08:49;;;;;;;10.85;8.70;;;;;;;15.94;48.20;99385.66;2618155;54;20030;-63
2022/05/01 10:11:19;;;;;;;14.50;10.77;;;;;;;16.10;47.73;99387.81;2618744;47;20050;-64
2022/05/01 10:13:52;;;;;;;11.73;8.57;;;;;;;16.26;47.53;99381.16;2620681;54;20034;-66
2022/05/01 10:16:21;;;;;;;8.98;8.07;;;;;;;16.40;47.69;99371.19;2621605;39;20422;-64
2022/05/01 10:18:57;;;;;;;9.88;8.90;;;;;;;16.48;46.64;99373.59;2617008;54;20046;-65
2022/05/01 10:21:50;;;;;;;10.25;8.60;;;;;;;16.48;47.15;99369.06;2617960;54;20035;-64
2022/05/01 10:24:21;;;;;;;11.15;8.35;;;;;;;16.29;47.00;99372.72;2617222;54;20046;-65
2022/05/01 10:26:55;;;;;;;9.48;8.45;;;;;;;16.10;47.42;99366.47;2617717;54;20038;-64
2022/05/01 10:33:16;;;;;;;8.93;7.88;;;;;;;16.35;46.53;99361.19;2617789;54;20031;-65
2022/05/01 10:36:15;;;;;;;9.25;8.07;;;;;;;16.18;47.49;99360.06;2617210;39;20450;-66
2022/05/01 10:38:52;;;;;;;8.82;8.02;;;;;;;16.01;47.36;99357.91;2617340;54;20031;-67
2022/05/01 10:41:24;;;;;;;9.43;7.78;;;;;;;15.83;47.64;99358.63;2617741;54;20042;-65
2022/05/01 10:43:58;;;;;;;10.98;8.95;;;;;;;15.76;47.86;99354.38;2617602;54;20046;-67
2022/05/01 10:46:34;;;;;;;9.00;8.02;;;;;;;15.87;48.28;99350.19;2617951;39;20723;-66
2022/05/01 10:49:08;;;;;;;9.25;7.97;;;;;;;16.03;48.33;99352.34;2617146;54;20034;-66
2022/05/01 10:51:52;;;;;;;8.85;7.45;;;;;;;16.04;48.09;99346.84;2617646;54;20027;-67
2022/05/01 10:54:41;;;;;;;9.30;8.18;;;;;;;15.97;48.54;99348.72;2617731;54;20796;-65
2022/05/01 10:57:19;;;;;;;10.93;9.77;;;;;;;16.07;48.33;99343.72;2617262;54;20041;-66
2022/05/01 10:59:50;;;;;;;8.50;7.43;;;;;;;16.15;47.89;99339.16;2617608;54;20033;-65
2022/05/01 11:02:31;;;;;;;11.50;9.48;;;;;;;16.28;48.05;99339.88;2618101;39;20399;-65
2022/05/01 11:05:02;;;;;;;12.05;8.23;;;;;;;16.24;47.67;99330.66;2618045;39;20545;-66
2022/05/01 11:07:34;;;;;;;8.88;7.97;;;;;;;16.20;47.78;99329.47;2617538;54;20033;-65
2022/05/01 11:10:07;;;;;;;11.95;8.40;;;;;;;16.09;47.93;99333.66;2618391;54;20125;-65
2022/05/01 11:12:38;;;;;;;8.00;7.30;;;;;;;16.18;47.67;99328.88;2618400;54;20143;-64
2022/05/01 11:15:10;;;;;;;13.52;10.35;;;;;;;16.22;47.90;99324.75;2618434;54;20565;-64
2022/05/01 11:18:00;;;;;;;9.80;8.02;;;;;;;16.41;47.40;99324.78;2617491;54;20074;-65
2022/05/01 11:20:34;;;;;;;14.43;9.10;;;;;;;16.32;47.32;99324.25;2617838;47;20031;-65
2022/05/01 11:23:29;;;;;;;9.82;8.80;;;;;;;16.17;47.29;99329.09;2618465;54;20030;-68
2022/05/01 11:26:16;;;;;;;11.43;9.65;;;;;;;16.10;47.78;99329.16;2618768;54;20034;-66
2022/05/01 11:28:48;;;;;;;10.35;9.23;;;;;;;16.01;47.88;99328.59;2618841;54;20082;-66
2022/05/01 11:31:46;;;;;;;11.52;9.48;;;;;;;16.09;48.26;99330.19;2621281;39;20424;-65
2022/05/01 11:34:55;;;;;;;10.25;9.20;;;;;;;16.05;47.80;99324.47;2620684;54;20031;-65
2022/05/01 11:37:26;;;;;;;11.40;9.75;;;;;;;16.33;47.79;99316.06;2619973;54;20042;-63
2022/05/01 11:40:18;;;;;;;10.65;9.35;;;;;;;16.44;47.24;99319.84;2619371;47;20034;-65
2022/05/01 11:42:47;;;;;;;11.20;9.48;;;;;;;16.49;47.51;99316.53;2620224;54;20038;-65
2022/05/01 11:45:18;;;;;;;8.88;7.97;;;;;;;16.56;47.02;99311.94;2620184;54;20042;-63
2022/05/01 11:47:52;;;;;;;13.50;9.95;;;;;;;16.60;47.04;99313.16;2618371;47;20039;-64
2022/05/01 11:50:28;;;;;;;10.73;9.55;;;;;;;16.45;47.22;99300.16;2618521;54;20034;-65
2022/05/01 11:52:59;;;;;;;14.30;10.25;;;;;;;16.23;47.75;99312.22;2618354;54;20057;-65
2022/05/01 12:03:36;;;;;;;13.38;10.15;;;;;;;16.25;48.12;99296.84;2619224;39;20454;-64
2022/05/01 12:06:08;;;;;;;13.25;10.15;;;;;;;16.33;48.07;99289.38;2618409;47;20029;-65
2022/05/01 12:08:52;;;;;;;12.48;10.43;;;;;;;16.42;48.14;99297.91;2618869;39;20679;-65
2022/05/01 12:11:30;;;;;;;11.57;9.88;;;;;;;16.49;47.96;99288.00;2618602;54;20046;-65
2022/05/01 12:14:09;;;;;;;11.93;9.70;;;;;;;16.67;47.38;99291.75;2618725;54;20026;-66
2022/05/01 12:16:38;;;;;;;13.77;10.88;;;;;;;16.76;47.09;99285.91;2618594;54;20034;-64
2022/05/01 12:19:10;;;;;;;12.38;10.85;;;;;;;16.81;46.36;99287.91;2620035;39;20469;-65
2022/05/01 12:21:43;;;;;;;11.57;10.35;;;;;;;16.97;46.85;99286.53;2620346;54;20034;-64